Time;durP1;ratioP1;P1;durP2;ratioP2;P2;SDS_P1;SDS_P2;PMS_P1;PMS_P2;Temp;Humidity;BMP_temperature;BMP_pressure;BME280_temperature;BME280_humidity;BME280_pressure;Samples;Min_cycle;Max_cycle;Signal;HPM_P1;HPM_P2
2022/03/19 00:04:09;;;;;;;11.73;5.70;;;;;;;;;;10368957;28;20428;-58
2022/03/19 00:09:10;;;;;;;13.32;6.43;;;;;;;;;;10367896;28;20053;-60
2022/03/19 00:14:12;;;;;;;10.57;5.80;;;;;;;;;;10361332;28;20056;-60
2022/03/19 00:19:12;;;;;;;13.73;5.15;;;;;;;;;;10361177;28;20486;-60
2022/03/19 00:24:13;;;;;;;13.13;5.78;;;;;;;;;;10368461;28;20070;-60
2022/03/19 00:29:13;;;;;;;9.23;5.85;;;;;;;;;;10371849;28;20250;-60
2022/03/19 00:34:14;;;;;;;16.10;6.65;;;;;;;;;;10370524;28;20037;-60
2022/03/19 00:39:15;;;;;;;13.82;6.05;;;;;;;;;;10370781;28;20133;-60
2022/03/19 00:44:16;;;;;;;10.35;6.05;;;;;;;;;;10371277;28;20271;-60
2022/03/19 00:49:17;;;;;;;13.43;6.22;;;;;;;;;;10371067;28;20393;-60
2022/03/19 00:54:17;;;;;;;10.82;5.18;;;;;;;;;;10370492;28;20042;-60
2022/03/19 00:59:18;;;;;;;9.07;5.70;;;;;;;;;;10370751;28;20041;-59
2022/03/19 01:04:18;;;;;;;11.07;5.63;;;;;;;;;;10370100;28;20077;-59
2022/03/19 01:09:19;;;;;;;9.95;5.15;;;;;;;;;;10368056;28;20133;-60
2022/03/19 01:14:19;;;;;;;8.25;4.90;;;;;;;;;;10370142;28;20281;-59
2022/03/19 01:19:52;;;;;;;9.45;5.55;;;;;;;;;;10363643;28;20038;-60
2022/03/19 01:24:41;;;;;;;10.15;5.10;;;;;;;;;;10360958;28;20444;-60
2022/03/19 01:29:41;;;;;;;13.70;5.30;;;;;;;;;;10369566;28;20042;-60
2022/03/19 01:34:42;;;;;;;7.55;5.03;;;;;;;;;;10369070;28;20134;-60
2022/03/19 01:39:42;;;;;;;11.60;5.38;;;;;;;;;;10369392;28;20038;-60
2022/03/19 01:44:43;;;;;;;7.30;4.95;;;;;;;;;;10368731;28;20041;-61
2022/03/19 01:49:44;;;;;;;9.13;5.05;;;;;;;;;;10367523;28;20038;-61
2022/03/19 01:54:48;;;;;;;7.60;5.07;;;;;;;;;;10368136;28;20113;-60
2022/03/19 01:59:50;;;;;;;9.57;5.07;;;;;;;;;;10368341;28;20485;-60
2022/03/19 02:04:52;;;;;;;8.48;5.50;;;;;;;;;;10367937;28;20377;-60
2022/03/19 02:09:56;;;;;;;9.77;5.40;;;;;;;;;;10367998;28;20030;-60
2022/03/19 02:14:57;;;;;;;6.45;4.70;;;;;;;;;;10345803;28;20038;-60
2022/03/19 02:19:57;;;;;;;8.88;5.10;;;;;;;;;;10367683;28;20046;-60
2022/03/19 02:30:17;;;;;;;8.73;5.20;;;;;;;;;;10359801;28;20057;-60
2022/03/19 02:35:19;;;;;;;7.82;4.93;;;;;;;;;;10366738;28;20117;-60
2022/03/19 02:40:21;;;;;;;8.82;5.22;;;;;;;;;;10363217;28;20026;-60
2022/03/19 02:45:23;;;;;;;8.23;4.57;;;;;;;;;;10346524;28;20057;-60
2022/03/19 02:50:34;;;;;;;10.88;5.22;;;;;;;;;;10366676;28;20026;-59
2022/03/19 02:55:41;;;;;;;6.13;4.90;;;;;;;;;;10365084;28;20517;-59
2022/03/19 03:00:41;;;;;;;9.60;5.05;;;;;;;;;;10365201;28;20091;-59
2022/03/19 03:05:42;;;;;;;7.85;4.90;;;;;;;;;;10365555;28;20501;-60
2022/03/19 03:10:43;;;;;;;6.85;4.38;;;;;;;;;;10365599;28;20422;-60
2022/03/19 03:15:45;;;;;;;8.68;5.25;;;;;;;;;;10347789;28;20052;-60
2022/03/19 03:20:45;;;;;;;6.68;4.72;;;;;;;;;;10362983;28;20034;-60
2022/03/19 03:25:46;;;;;;;9.35;5.00;;;;;;;;;;10348004;28;20034;-60
2022/03/19 03:30:46;;;;;;;9.43;4.88;;;;;;;;;;10349642;28;20034;-60
2022/03/19 03:35:47;;;;;;;7.55;4.88;;;;;;;;;;10365031;28;20045;-60
2022/03/19 03:40:47;;;;;;;8.18;4.65;;;;;;;;;;10365302;28;20037;-60
2022/03/19 03:45:49;;;;;;;6.60;4.70;;;;;;;;;;10364671;28;20030;-60
2022/03/19 03:50:55;;;;;;;7.72;4.65;;;;;;;;;;10363322;28;20108;-60
2022/03/19 03:55:57;;;;;;;5.22;4.65;;;;;;;;;;10363863;28;20041;-60
2022/03/19 04:00:58;;;;;;;4.95;4.20;;;;;;;;;;10364454;28;20029;-59
2022/03/19 04:05:58;;;;;;;6.60;4.40;;;;;;;;;;10364626;28;20073;-60
2022/03/19 04:10:59;;;;;;;5.20;4.30;;;;;;;;;;10368535;28;20440;-60
2022/03/19 04:16:00;;;;;;;9.57;4.82;;;;;;;;;;10372233;28;20042;-60
2022/03/19 04:21:00;;;;;;;5.95;4.55;;;;;;;;;;10371734;28;20041;-60
2022/03/19 04:26:02;;;;;;;6.10;4.20;;;;;;;;;;10369919;28;20030;-61
2022/03/19 04:31:02;;;;;;;6.75;4.38;;;;;;;;;;10365063;28;20444;-61
2022/03/19 04:41:23;;;;;;;6.85;4.88;;;;;;;;;;10362604;28;20061;-59
2022/03/19 04:46:23;;;;;;;6.40;5.00;;;;;;;;;;10370708;28;20045;-59
2022/03/19 04:51:33;;;;;;;7.28;4.88;;;;;;;;;;10371675;28;20034;-59
2022/03/19 04:56:34;;;;;;;5.50;4.50;;;;;;;;;;10370721;28;20046;-60
2022/03/19 05:01:35;;;;;;;7.20;4.65;;;;;;;;;;10369900;28;20026;-59
2022/03/19 05:06:35;;;;;;;8.05;4.78;;;;;;;;;;10370510;28;20030;-60
2022/03/19 05:11:36;;;;;;;6.78;4.38;;;;;;;;;;10370114;28;20028;-59
2022/03/19 05:16:37;;;;;;;7.20;4.55;;;;;;;;;;10369983;28;20034;-59
2022/03/19 05:21:37;;;;;;;14.85;4.80;;;;;;;;;;10368840;28;20025;-59
2022/03/19 05:26:38;;;;;;;5.97;4.47;;;;;;;;;;10369972;28;20085;-60
2022/03/19 05:31:39;;;;;;;7.82;4.78;;;;;;;;;;10366371;28;20026;-59
2022/03/19 05:36:39;;;;;;;7.28;4.57;;;;;;;;;;10368377;28;20552;-58
2022/03/19 05:41:40;;;;;;;5.07;3.83;;;;;;;;;;10361793;28;20048;-58
2022/03/19 05:46:41;;;;;;;6.00;4.45;;;;;;;;;;10360014;28;20041;-60
2022/03/19 05:51:42;;;;;;;6.00;4.38;;;;;;;;;;10367682;28;20034;-59
2022/03/19 05:56:43;;;;;;;7.05;4.78;;;;;;;;;;10368006;28;20073;-59
2022/03/19 06:01:44;;;;;;;7.78;4.38;;;;;;;;;;10367845;28;20057;-59
2022/03/19 06:06:45;;;;;;;6.50;4.50;;;;;;;;;;10367692;28;20041;-61
2022/03/19 06:11:46;;;;;;;5.07;4.13;;;;;;;;;;10367736;28;20034;-60
2022/03/19 06:16:49;;;;;;;5.85;4.30;;;;;;;;;;10367989;28;20109;-61
2022/03/19 06:21:50;;;;;;;7.13;3.83;;;;;;;;;;10367138;28;20038;-61
2022/03/19 06:26:51;;;;;;;5.70;4.25;;;;;;;;;;10367661;28;20042;-61
2022/03/19 06:31:51;;;;;;;8.65;4.57;;;;;;;;;;10365763;28;20037;-61
2022/03/19 06:42:11;;;;;;;5.82;4.13;;;;;;;;;;10357377;28;20034;-61
2022/03/19 06:47:12;;;;;;;4.97;4.03;;;;;;;;;;10366899;28;20033;-61
2022/03/19 06:52:12;;;;;;;4.55;3.70;;;;;;;;;;10359922;28;20113;-61
2022/03/19 06:57:13;;;;;;;5.32;3.90;;;;;;;;;;10365917;28;20042;-61
2022/03/19 07:02:13;;;;;;;5.15;3.88;;;;;;;;;;10364481;28;20033;-61
2022/03/19 07:07:14;;;;;;;5.57;3.80;;;;;;;;;;10366220;28;20045;-61
2022/03/19 07:12:14;;;;;;;5.72;4.32;;;;;;;;;;10365149;28;20038;-61
2022/03/19 07:17:15;;;;;;;4.68;3.70;;;;;;;;;;10364178;28;20481;-61
2022/03/19 07:22:15;;;;;;;5.97;4.45;;;;;;;;;;10365447;28;20030;-61
2022/03/19 07:27:16;;;;;;;5.10;3.92;;;;;;;;;;10365625;28;20060;-61
2022/03/19 07:32:17;;;;;;;4.05;3.50;;;;;;;;;;10365552;28;20026;-61
2022/03/19 07:37:17;;;;;;;5.45;4.10;;;;;;;;;;10364465;28;20030;-61
2022/03/19 07:42:18;;;;;;;5.85;3.90;;;;;;;;;;10360970;28;20485;-61
2022/03/19 07:47:19;;;;;;;5.35;3.92;;;;;;;;;;10370905;28;20426;-62
2022/03/19 07:52:19;;;;;;;3.72;3.38;;;;;;;;;;10366456;28;20041;-61
2022/03/19 07:57:22;;;;;;;5.53;4.05;;;;;;;;;;10364768;28;20037;-62
2022/03/19 08:02:23;;;;;;;6.45;4.03;;;;;;;;;;10367425;28;20022;-61
2022/03/19 08:07:23;;;;;;;5.00;3.92;;;;;;;;;;10372733;28;20026;-61
2022/03/19 08:12:26;;;;;;;4.55;3.95;;;;;;;;;;10371443;28;20040;-61
2022/03/19 08:17:26;;;;;;;4.85;3.85;;;;;;;;;;10370197;28;20119;-61
2022/03/19 08:22:27;;;;;;;5.40;4.03;;;;;;;;;;10371153;28;20505;-62
2022/03/19 08:27:28;;;;;;;6.30;4.20;;;;;;;;;;10364977;28;20473;-60
2022/03/19 08:32:29;;;;;;;6.43;3.95;;;;;;;;;;10370273;28;20835;-60
2022/03/19 08:37:32;;;;;;;6.45;4.20;;;;;;;;;;10371931;28;20037;-60
2022/03/19 08:42:34;;;;;;;5.25;3.78;;;;;;;;;;10370149;28;20430;-60
2022/03/19 08:47:34;;;;;;;4.80;3.67;;;;;;;;;;10351770;28;20041;-61
2022/03/19 08:52:36;;;;;;;5.40;4.35;;;;;;;;;;10369807;28;20088;-60
2022/03/19 08:57:36;;;;;;;5.47;4.03;;;;;;;;;;10354471;28;20056;-61
2022/03/19 09:02:37;;;;;;;4.55;4.05;;;;;;;;;;10369807;28;20037;-61
2022/03/19 09:07:38;;;;;;;5.53;4.00;;;;;;;;;;10369904;28;20048;-61
2022/03/19 09:12:40;;;;;;;6.53;4.30;;;;;;;;;;10361049;28;20064;-54
2022/03/19 09:17:41;;;;;;;12.35;4.50;;;;;;;;;;10368540;28;20440;-55
2022/03/19 09:22:42;;;;;;;7.97;5.68;;;;;;;;;;10367975;28;20548;-54
2022/03/19 09:27:42;;;;;;;9.68;7.30;;;;;;;;;;10367305;28;20038;-56
2022/03/19 09:32:44;;;;;;;20.15;11.75;;;;;;;;;;10366118;28;20080;-57
2022/03/19 09:37:44;;;;;;;30.58;12.52;;;;;;;;;;10366486;28;20531;-55
2022/03/19 09:42:54;;;;;;;28.60;12.57;;;;;;;;;;10361023;28;20201;-56
2022/03/19 09:47:55;;;;;;;34.25;12.85;;;;;;;;;;10360711;28;20029;-60
2022/03/19 09:52:57;;;;;;;22.77;10.20;;;;;;;;;;10365036;28;20485;-47
2022/03/19 09:58:00;;;;;;;23.58;10.88;;;;;;;;;;10356482;28;20478;-47
2022/03/19 10:03:03;;;;;;;28.45;11.02;;;;;;;;;;10359492;28;20497;-47
2022/03/19 10:13:25;;;;;;;30.30;10.30;;;;;;;;;;10367086;28;20030;-48
2022/03/19 10:18:28;;;;;;;27.92;11.15;;;;;;;;;;10366469;28;20030;-47
2022/03/19 10:23:42;;;;;;;25.60;10.93;;;;;;;;;;10366379;28;20690;-47
2022/03/19 10:28:43;;;;;;;21.20;9.20;;;;;;;;;;10363600;28;20030;-48
2022/03/19 10:33:49;;;;;;;21.83;9.93;;;;;;;;;;10363126;28;20034;-48
2022/03/19 10:38:50;;;;;;;29.20;9.38;;;;;;;;;;10365340;28;20029;-49
2022/03/19 10:43:51;;;;;;;26.23;9.30;;;;;;;;;;10362685;28;20509;-48
2022/03/19 10:48:54;;;;;;;21.08;9.55;;;;;;;;;;10364253;28;20034;-48
2022/03/19 10:53:56;;;;;;;19.63;9.23;;;;;;;;;;10364802;28;20034;-47
2022/03/19 10:58:57;;;;;;;16.55;9.10;;;;;;;;;;10348137;28;20061;-51
2022/03/19 11:04:01;;;;;;;28.23;9.55;;;;;;;;;;10357469;28;20048;-48
2022/03/19 11:09:10;;;;;;;21.92;8.50;;;;;;;;;;10339923;28;20041;-47
2022/03/19 11:14:22;;;;;;;22.35;9.32;;;;;;;;;;10363629;28;20038;-48
2022/03/19 11:19:23;;;;;;;17.98;9.50;;;;;;;;;;10364538;28;20026;-49
2022/03/19 11:24:26;;;;;;;12.70;9.25;;;;;;;;;;10347129;28;20029;-48
2022/03/19 11:29:28;;;;;;;16.08;8.93;;;;;;;;;;10348203;28;20034;-47
2022/03/19 11:34:44;;;;;;;16.27;9.18;;;;;;;;;;10345643;28;20036;-48
2022/03/19 11:40:20;;;;;;;15.93;8.18;;;;;;;;;;10345836;28;20551;-47
2022/03/19 11:45:22;;;;;;;13.88;8.07;;;;;;;;;;10158018;29;20583;-47
2022/03/19 11:50:26;;;;;;;16.42;7.68;;;;;;;;;;10145820;29;20401;-50
2022/03/19 11:55:29;;;;;;;16.67;8.52;;;;;;;;;;10162518;29;20064;-48
2022/03/19 12:00:34;;;;;;;13.95;8.32;;;;;;;;;;10164641;29;20560;-47
2022/03/19 12:05:43;;;;;;;15.23;8.27;;;;;;;;;;10157005;29;20555;-49
2022/03/19 12:11:01;;;;;;;14.60;8.13;;;;;;;;;;10153190;29;20059;-48
2022/03/19 12:16:04;;;;;;;12.35;7.78;;;;;;;;;;10167042;28;20058;-48
2022/03/19 12:21:17;;;;;;;15.20;8.02;;;;;;;;;;10362554;28;20034;-48
2022/03/19 12:26:23;;;;;;;11.18;7.38;;;;;;;;;;10360991;28;20026;-54
2022/03/19 12:31:37;;;;;;;10.65;7.70;;;;;;;;;;10363045;28;20556;-48
2022/03/19 12:36:38;;;;;;;11.65;7.40;;;;;;;;;;10369278;28;20125;-48
2022/03/19 12:41:40;;;;;;;17.23;7.93;;;;;;;;;;10366027;28;20504;-50
2022/03/19 12:46:40;;;;;;;14.40;7.75;;;;;;;;;;10366447;28;20440;-48
2022/03/19 12:51:45;;;;;;;11.10;8.13;;;;;;;;;;10370000;28;20032;-48
2022/03/19 12:56:48;;;;;;;11.25;7.70;;;;;;;;;;10366289;28;20050;-48
2022/03/19 13:01:49;;;;;;;12.20;7.35;;;;;;;;;;10368613;28;20026;-47
2022/03/19 13:06:51;;;;;;;11.00;7.63;;;;;;;;;;10368966;28;20029;-49
2022/03/19 13:11:52;;;;;;;9.55;7.45;;;;;;;;;;10365226;28;20124;-49
2022/03/19 13:16:55;;;;;;;12.35;7.55;;;;;;;;;;10361478;28;20073;-48
2022/03/19 13:21:56;;;;;;;13.15;7.97;;;;;;;;;;10358930;28;20029;-48
2022/03/19 13:26:57;;;;;;;13.80;7.60;;;;;;;;;;10359698;28;20034;-48
2022/03/19 13:32:16;;;;;;;12.88;7.93;;;;;;;;;;10366522;28;20468;-48
2022/03/19 13:37:21;;;;;;;10.25;7.22;;;;;;;;;;10344587;28;20030;-48
2022/03/19 13:42:31;;;;;;;10.43;7.05;;;;;;;;;;10352061;28;20041;-48
2022/03/19 13:47:39;;;;;;;16.23;7.78;;;;;;;;;;10364982;28;20397;-47
2022/03/19 13:52:46;;;;;;;11.73;7.10;;;;;;;;;;10367607;28;20109;-48
2022/03/19 13:58:02;;;;;;;11.43;7.30;;;;;;;;;;10349732;28;20069;-48
2022/03/19 14:03:07;;;;;;;14.45;7.45;;;;;;;;;;10363625;28;20385;-48
2022/03/19 14:08:14;;;;;;;11.98;7.68;;;;;;;;;;10364398;28;20070;-52
2022/03/19 14:13:21;;;;;;;14.57;7.80;;;;;;;;;;10364989;28;20444;-48
2022/03/19 14:18:27;;;;;;;9.63;7.28;;;;;;;;;;10368069;28;20073;-47
2022/03/19 14:23:29;;;;;;;11.55;7.43;;;;;;;;;;10360791;28;20034;-49
2022/03/19 14:28:30;;;;;;;14.98;7.93;;;;;;;;;;10361070;28;20033;-48
2022/03/19 14:33:31;;;;;;;14.00;7.75;;;;;;;;;;10367064;28;20042;-48
2022/03/19 14:38:38;;;;;;;13.80;7.97;;;;;;;;;;10367257;28;20037;-49
2022/03/19 14:43:42;;;;;;;17.08;7.95;;;;;;;;;;10366861;28;20474;-48
2022/03/19 14:48:43;;;;;;;9.60;7.35;;;;;;;;;;10365822;28;20040;-49
2022/03/19 14:53:44;;;;;;;16.75;8.00;;;;;;;;;;10365883;28;20022;-48
2022/03/19 14:58:46;;;;;;;10.90;7.45;;;;;;;;;;10366481;28;20045;-48
2022/03/19 15:03:47;;;;;;;11.52;7.35;;;;;;;;;;10364739;28;20048;-48
2022/03/19 15:08:49;;;;;;;20.05;8.10;;;;;;;;;;10366723;28;20033;-49
2022/03/19 15:13:50;;;;;;;10.70;7.30;;;;;;;;;;10365032;28;20060;-53
2022/03/19 15:18:52;;;;;;;11.77;8.18;;;;;;;;;;10365392;28;20032;-48
2022/03/19 15:23:52;;;;;;;13.70;7.28;;;;;;;;;;10365564;28;20119;-47
2022/03/19 15:28:53;;;;;;;9.52;7.10;;;;;;;;;;10359706;28;20084;-49
2022/03/19 15:33:54;;;;;;;11.63;7.38;;;;;;;;;;10357755;28;20022;-47
2022/03/19 15:38:54;;;;;;;10.48;6.97;;;;;;;;;;10365797;28;20482;-48
2022/03/19 15:43:55;;;;;;;10.18;8.15;;;;;;;;;;10363900;28;20034;-48
2022/03/19 15:48:56;;;;;;;11.15;7.07;;;;;;;;;;10365414;28;20033;-49
2022/03/19 15:53:57;;;;;;;9.93;6.68;;;;;;;;;;10365619;28;20034;-49
2022/03/19 15:58:59;;;;;;;12.95;7.20;;;;;;;;;;10362531;28;20044;-47
2022/03/19 16:04:00;;;;;;;9.82;6.82;;;;;;;;;;10363093;28;20480;-47
2022/03/19 16:09:00;;;;;;;10.13;6.82;;;;;;;;;;10371503;28;20037;-53
2022/03/19 16:14:01;;;;;;;9.32;7.00;;;;;;;;;;10372806;28;20091;-48
2022/03/19 16:19:02;;;;;;;9.32;7.28;;;;;;;;;;10370838;28;20509;-47
2022/03/19 16:24:02;;;;;;;10.90;6.68;;;;;;;;;;10371107;28;20128;-47
2022/03/19 16:29:03;;;;;;;10.15;7.15;;;;;;;;;;10370403;28;20038;-48
2022/03/19 16:34:04;;;;;;;10.20;6.45;;;;;;;;;;10364105;28;20026;-48
2022/03/19 16:39:04;;;;;;;8.30;6.70;;;;;;;;;;10369819;28;20033;-49
2022/03/19 16:44:05;;;;;;;8.95;6.25;;;;;;;;;;10346233;28;20026;-48
2022/03/19 16:49:06;;;;;;;8.48;6.47;;;;;;;;;;10370608;28;20040;-48
2022/03/19 16:54:06;;;;;;;9.77;6.85;;;;;;;;;;10370172;28;20072;-48
2022/03/19 16:59:08;;;;;;;7.85;6.50;;;;;;;;;;10368871;28;20490;-57
2022/03/19 17:04:09;;;;;;;8.70;6.43;;;;;;;;;;10370223;28;20038;-47
2022/03/19 17:09:10;;;;;;;12.77;6.82;;;;;;;;;;10369344;28;20042;-50
2022/03/19 17:14:11;;;;;;;9.30;6.13;;;;;;;;;;10369864;28;20045;-47
2022/03/19 17:19:12;;;;;;;8.00;6.40;;;;;;;;;;10368210;28;20120;-47
2022/03/19 17:24:13;;;;;;;7.70;5.72;;;;;;;;;;10369372;28;20125;-49
2022/03/19 17:29:14;;;;;;;8.10;6.15;;;;;;;;;;10369916;28;20042;-48
2022/03/19 17:34:14;;;;;;;8.40;6.35;;;;;;;;;;10369038;28;20409;-48
2022/03/19 17:39:15;;;;;;;8.23;6.28;;;;;;;;;;10362118;28;20036;-47
2022/03/19 17:44:16;;;;;;;7.93;6.50;;;;;;;;;;10351812;28;20080;-53
2022/03/19 17:49:17;;;;;;;8.18;5.88;;;;;;;;;;10362470;28;20117;-51
2022/03/19 17:54:17;;;;;;;9.20;5.68;;;;;;;;;;10360720;28;20076;-51
2022/03/19 17:59:18;;;;;;;13.38;6.13;;;;;;;;;;10365235;28;20045;-47
2022/03/19 18:04:19;;;;;;;6.80;5.68;;;;;;;;;;10366337;28;20037;-48
2022/03/19 18:09:19;;;;;;;6.70;5.75;;;;;;;;;;10362568;28;20081;-54
2022/03/19 18:14:20;;;;;;;12.30;6.10;;;;;;;;;;10358467;28;20030;-52
2022/03/19 18:19:21;;;;;;;7.28;5.45;;;;;;;;;;10361490;28;20029;-46
2022/03/19 18:24:21;;;;;;;8.05;5.78;;;;;;;;;;10361746;28;20420;-47
2022/03/19 18:29:22;;;;;;;10.18;6.40;;;;;;;;;;10362389;28;20044;-47
2022/03/19 18:34:22;;;;;;;12.68;6.35;;;;;;;;;;10363474;28;20030;-46
2022/03/19 18:39:23;;;;;;;9.77;5.97;;;;;;;;;;10360583;28;20034;-46
2022/03/19 18:44:24;;;;;;;10.40;6.22;;;;;;;;;;10363907;28;20032;-46
2022/03/19 18:49:25;;;;;;;12.20;5.65;;;;;;;;;;10359089;28;20037;-46
2022/03/19 18:54:26;;;;;;;26.35;7.88;;;;;;;;;;10363444;28;20030;-47
2022/03/19 18:59:27;;;;;;;23.23;6.65;;;;;;;;;;10359351;28;20458;-48
2022/03/19 19:04:29;;;;;;;14.05;6.97;;;;;;;;;;10363988;28;20028;-46
2022/03/19 19:09:30;;;;;;;15.85;7.82;;;;;;;;;;10364060;28;20042;-46
2022/03/19 19:14:32;;;;;;;14.50;6.35;;;;;;;;;;10361830;28;21097;-47
2022/03/19 19:19:33;;;;;;;15.43;6.68;;;;;;;;;;10363137;28;20029;-48
2022/03/19 19:24:40;;;;;;;30.50;8.00;;;;;;;;;;10357992;28;20030;-46
2022/03/19 19:29:41;;;;;;;24.08;7.10;;;;;;;;;;10362557;28;20057;-46
2022/03/19 19:34:42;;;;;;;15.80;7.20;;;;;;;;;;10357795;28;20036;-49
2022/03/19 19:39:45;;;;;;;24.45;6.95;;;;;;;;;;10359040;28;20358;-55
2022/03/19 19:44:46;;;;;;;24.10;6.95;;;;;;;;;;10369504;28;20021;-57
2022/03/19 19:49:47;;;;;;;14.27;6.65;;;;;;;;;;10368754;28;20033;-51
2022/03/19 19:54:48;;;;;;;18.42;7.07;;;;;;;;;;10366559;28;20108;-52
2022/03/19 19:59:49;;;;;;;12.80;6.40;;;;;;;;;;10364029;28;20045;-50
2022/03/19 20:04:51;;;;;;;17.35;6.05;;;;;;;;;;10366664;28;20037;-47
2022/03/19 20:09:53;;;;;;;19.05;6.57;;;;;;;;;;10356802;28;20041;-47
2022/03/19 20:14:54;;;;;;;18.02;6.80;;;;;;;;;;10368910;28;20121;-47
2022/03/19 20:19:56;;;;;;;16.85;6.82;;;;;;;;;;10367917;28;20038;-47
2022/03/19 20:24:56;;;;;;;21.30;7.28;;;;;;;;;;10362845;28;20022;-47
2022/03/19 20:29:57;;;;;;;14.18;6.38;;;;;;;;;;10359907;28;20030;-46
2022/03/19 20:34:58;;;;;;;12.43;5.95;;;;;;;;;;10365033;28;20056;-47
2022/03/19 20:39:59;;;;;;;11.77;5.72;;;;;;;;;;10364247;28;20040;-47
2022/03/19 20:44:59;;;;;;;15.55;5.75;;;;;;;;;;10365881;28;20029;-47
2022/03/19 20:50:16;;;;;;;11.27;6.30;;;;;;;;;;10364633;28;20041;-47
2022/03/19 20:55:22;;;;;;;12.73;5.72;;;;;;;;;;10366007;28;20030;-47
2022/03/19 21:00:28;;;;;;;14.05;6.53;;;;;;;;;;10364493;28;20037;-46
2022/03/19 21:05:31;;;;;;;18.83;6.47;;;;;;;;;;10365534;28;20065;-48
2022/03/19 21:10:33;;;;;;;15.98;6.05;;;;;;;;;;10361865;28;20038;-47
2022/03/19 21:15:37;;;;;;;14.30;6.50;;;;;;;;;;10367923;28;20436;-48
2022/03/19 21:20:38;;;;;;;12.80;5.50;;;;;;;;;;10362487;28;20033;-48
2022/03/19 21:25:39;;;;;;;11.88;6.28;;;;;;;;;;10368139;28;20405;-48
2022/03/19 21:30:39;;;;;;;15.98;6.60;;;;;;;;;;10367259;28;20025;-46
2022/03/19 21:35:42;;;;;;;16.25;7.07;;;;;;;;;;10348336;28;20026;-47
2022/03/19 21:40:49;;;;;;;11.45;6.80;;;;;;;;;;10364779;28;20073;-46
2022/03/19 21:45:55;;;;;;;13.48;6.72;;;;;;;;;;10364395;28;20033;-47
2022/03/19 21:50:56;;;;;;;12.27;6.65;;;;;;;;;;10366613;28;20490;-46
2022/03/19 21:55:57;;;;;;;13.07;7.15;;;;;;;;;;10367104;28;20041;-46
2022/03/19 22:00:57;;;;;;;15.65;7.05;;;;;;;;;;10366750;28;20360;-46
2022/03/19 22:05:58;;;;;;;12.88;6.45;;;;;;;;;;10366150;28;20038;-46
2022/03/19 22:10:59;;;;;;;12.90;7.38;;;;;;;;;;10365297;28;20100;-46
2022/03/19 22:16:00;;;;;;;12.82;7.45;;;;;;;;;;10366634;28;20125;-47
2022/03/19 22:21:02;;;;;;;17.20;7.43;;;;;;;;;;10355416;28;20030;-49
2022/03/19 22:26:03;;;;;;;15.15;7.28;;;;;;;;;;10364568;28;20481;-48
2022/03/19 22:31:06;;;;;;;15.38;7.40;;;;;;;;;;10364569;28;20030;-47
2022/03/19 22:36:07;;;;;;;11.32;7.18;;;;;;;;;;10365064;28;20041;-53
2022/03/19 22:41:07;;;;;;;12.27;6.60;;;;;;;;;;10365062;28;20030;-47
2022/03/19 22:46:08;;;;;;;9.68;6.82;;;;;;;;;;10362647;28;20029;-47
2022/03/19 22:51:09;;;;;;;12.20;7.38;;;;;;;;;;10356715;28;20038;-46
2022/03/19 22:56:10;;;;;;;13.68;7.13;;;;;;;;;;10363780;28;20050;-47
2022/03/19 23:01:10;;;;;;;10.43;7.28;;;;;;;;;;10364392;28;20504;-46
2022/03/19 23:06:11;;;;;;;11.15;7.30;;;;;;;;;;10363153;28;20038;-46
2022/03/19 23:11:28;;;;;;;13.18;7.63;;;;;;;;;;10345530;28;20041;-54
2022/03/19 23:16:29;;;;;;;10.50;6.72;;;;;;;;;;10362106;28;20072;-48
2022/03/19 23:21:31;;;;;;;12.75;7.38;;;;;;;;;;10357384;28;20044;-47
2022/03/19 23:26:32;;;;;;;10.50;6.78;;;;;;;;;;10360532;28;20038;-47
2022/03/19 23:31:34;;;;;;;14.30;7.13;;;;;;;;;;10356164;28;20057;-50
2022/03/19 23:36:35;;;;;;;11.68;6.80;;;;;;;;;;10361411;28;20034;-46
2022/03/19 23:41:35;;;;;;;10.00;6.85;;;;;;;;;;10363066;28;20030;-46
2022/03/19 23:46:36;;;;;;;12.40;6.47;;;;;;;;;;10361759;28;20091;-46
2022/03/19 23:51:37;;;;;;;13.10;7.63;;;;;;;;;;10361249;28;20099;-47
2022/03/19 23:56:38;;;;;;;13.57;6.72;;;;;;;;;;10357867;28;20134;-46
